Archival Weather

Norman Y Mineta San Jose Intl

San Jose, California (KSJC)

Report from: Wednesday, January 31, 2024 3:53 AM PST
Current time: Monday, June 24, 2024 3:27 AM PDT

Current weather – Weather history – Daily summaries
Weather forecast

Temperature15.0°C (59.0°F)
Dew point5.6°C (42.1°F)
Winds 7 kts (3.6 m/s, 8.1 mph) South (180°)
Visibility10 mi. (16.1 km)
Clouds Sky clear
Altimeter29.83 in.Hg (1010 mB)
Relative humidity53 %
Density altitude236 ft. (72 m)
Sea-level pressure101.0 kPa (1010 mB, 29.83 in.Hg)
Max temp last 6 hours16.1°C (61.0°F)
Min temp last 6 hours14.4°C (57.9°F)
Remarks Fully automated report
System requires maintenance
Automated weather observing station with precipitation discriminator
Pressure falling
Flight conditions Visual Meteorological Conditions
Raw dataKSJC 311153Z AUTO 18007KT 10SM CLR 15/06 A2983 RMK AO2 SLP102 T01500056 10161 20144 57019 $
An error has occurred. This application may no longer respond until reloaded. Reload 🗙